createdAt,value
2018-09-11T00:02:10.860Z,61.52
2018-09-11T00:04:39.031Z,61.67
2018-09-11T00:07:07.263Z,61.90
2018-09-11T00:09:35.464Z,62.82
2018-09-11T00:12:03.648Z,63.34
2018-09-11T00:14:31.831Z,63.31
2018-09-11T00:17:00.042Z,64.23
2018-09-11T00:19:28.229Z,64.43
2018-09-11T00:21:56.408Z,64.83
2018-09-11T00:24:24.601Z,64.66
2018-09-11T00:26:52.792Z,65.22
2018-09-11T00:29:20.982Z,65.89
2018-09-11T00:31:49.163Z,66.10
2018-09-11T00:34:17.359Z,66.21
2018-09-11T00:36:45.624Z,66.15
2018-09-11T00:39:13.845Z,66.56
2018-09-11T00:41:42.035Z,67.01
2018-09-11T00:44:10.246Z,67.14
2018-09-11T00:46:38.437Z,67.12
2018-09-11T00:49:06.666Z,67.45
2018-09-11T00:51:34.851Z,67.61
2018-09-11T00:54:03.058Z,67.46
2018-09-11T00:56:31.709Z,67.51
2018-09-11T00:58:59.895Z,67.63
2018-09-11T01:01:28.132Z,67.68
2018-09-11T01:03:56.297Z,67.55
2018-09-11T01:06:24.512Z,67.61
2018-09-11T01:08:52.690Z,68.10
2018-09-11T01:11:20.896Z,68.09
2018-09-11T01:13:49.589Z,68.18
2018-09-11T01:16:17.771Z,68.42
2018-09-11T01:18:45.979Z,68.35
2018-09-11T01:21:14.186Z,68.52
2018-09-11T01:23:42.391Z,68.54
2018-09-11T01:26:10.573Z,68.80
2018-09-11T01:28:38.786Z,69.01
2018-09-11T01:31:06.968Z,69.08
2018-09-11T01:33:35.139Z,69.32
2018-09-11T01:36:03.318Z,69.21
2018-09-11T01:38:31.519Z,69.18
2018-09-11T01:40:59.700Z,69.21
2018-09-11T01:43:28.524Z,69.24
2018-09-11T01:45:56.929Z,69.13
2018-09-11T01:48:25.115Z,69.37
2018-09-11T01:50:53.300Z,69.08
2018-09-11T01:53:21.479Z,69.24
2018-09-11T01:55:49.672Z,69.53
2018-09-11T01:58:17.846Z,69.32
2018-09-11T02:00:46.027Z,69.32
2018-09-11T02:03:14.216Z,69.27
2018-09-11T02:05:42.397Z,69.11
2018-09-11T02:08:10.584Z,69.25
2018-09-11T02:10:38.764Z,69.33
2018-09-11T02:13:06.939Z,69.37
2018-09-11T02:15:35.140Z,69.04
2018-09-11T02:18:03.344Z,68.98
2018-09-11T02:20:31.547Z,68.78
2018-09-11T02:22:59.718Z,68.53
2018-09-11T02:25:27.916Z,68.40
2018-09-11T02:27:57.613Z,68.29
2018-09-11T02:30:25.879Z,68.28
2018-09-11T02:32:54.055Z,68.21
2018-09-11T02:35:22.291Z,68.30
2018-09-11T02:37:50.478Z,68.24
2018-09-11T02:40:18.774Z,68.15
2018-09-11T02:42:46.971Z,68.53
2018-09-11T02:45:15.144Z,68.71
2018-09-11T02:47:43.350Z,68.43
2018-09-11T02:50:11.545Z,68.66
2018-09-11T02:52:39.847Z,68.44
2018-09-11T02:55:08.553Z,68.66
2018-09-11T02:57:36.765Z,68.50
2018-09-11T03:00:04.968Z,68.52
2018-09-11T03:02:33.152Z,68.36
2018-09-11T03:05:01.345Z,68.41
2018-09-11T03:07:29.544Z,68.42
2018-09-11T03:09:57.717Z,68.53
2018-09-11T03:12:25.891Z,68.48
2018-09-11T03:14:54.071Z,68.42
2018-09-11T03:17:22.247Z,68.70
2018-09-11T03:19:50.485Z,68.66
2018-09-11T03:22:18.683Z,68.91
2018-09-11T03:24:46.887Z,69.18
2018-09-11T03:27:15.087Z,69.29
2018-09-11T03:29:43.498Z,69.38
2018-09-11T03:32:11.684Z,69.37
2018-09-11T03:34:39.982Z,69.45
2018-09-11T03:37:08.226Z,69.64
2018-09-11T03:39:36.404Z,69.74
2018-09-11T03:42:04.579Z,69.61
2018-09-11T03:44:32.772Z,69.51
2018-09-11T03:47:00.960Z,69.56
2018-09-11T03:49:29.151Z,69.85
2018-09-11T03:51:57.337Z,69.85
2018-09-11T03:54:25.524Z,69.92
2018-09-11T03:56:53.719Z,69.93
2018-09-11T03:59:21.916Z,69.78
2018-09-11T04:01:50.102Z,69.74
2018-09-11T04:04:18.274Z,69.90
2018-09-11T04:06:46.468Z,69.70
2018-09-11T04:09:14.646Z,69.75
2018-09-11T04:11:43.288Z,69.75
2018-09-11T04:14:11.532Z,69.73
2018-09-11T04:16:39.707Z,69.81
2018-09-11T04:19:07.946Z,69.72
2018-09-11T04:21:36.136Z,69.73
2018-09-11T04:24:04.318Z,69.43
2018-09-11T04:26:32.508Z,68.75
2018-09-11T04:29:00.759Z,68.75
2018-09-11T04:31:29.015Z,68.61
2018-09-11T04:33:57.232Z,68.58
2018-09-11T04:36:25.483Z,68.34
2018-09-11T04:38:53.590Z,68.45
2018-09-11T04:41:21.799Z,68.24
2018-09-11T04:43:50.029Z,67.89
2018-09-11T04:46:18.214Z,67.96
2018-09-11T04:48:46.819Z,67.61
2018-09-11T04:51:15.267Z,67.61
2018-09-11T04:53:43.451Z,67.19
2018-09-11T04:56:11.697Z,67.36
2018-09-11T04:58:39.971Z,66.92
2018-09-11T05:01:08.171Z,67.01
2018-09-11T05:03:36.370Z,67.30
2018-09-11T05:06:04.563Z,67.56
2018-09-11T05:08:32.744Z,67.75
2018-09-11T05:11:00.942Z,67.82
2018-09-11T05:13:29.159Z,68.14
2018-09-11T05:15:57.339Z,67.96
2018-09-11T05:18:25.518Z,68.30
2018-09-11T05:20:53.706Z,68.17
2018-09-11T05:23:21.910Z,67.95
2018-09-11T05:25:50.121Z,67.93
2018-09-11T05:28:18.340Z,67.49
2018-09-11T05:30:46.544Z,67.46
2018-09-11T05:33:14.877Z,67.74
2018-09-11T05:35:43.051Z,67.39
2018-09-11T05:38:11.283Z,67.45
2018-09-11T05:40:39.476Z,67.75
2018-09-11T05:43:07.684Z,67.54
2018-09-11T05:45:35.876Z,67.57
2018-09-11T05:48:04.144Z,67.68
2018-09-11T05:50:32.326Z,67.11
2018-09-11T05:53:00.516Z,67.27
2018-09-11T05:55:28.710Z,66.99
2018-09-11T05:57:56.919Z,67.01
2018-09-11T06:00:25.105Z,67.24
2018-09-11T06:02:53.291Z,67.11
2018-09-11T06:05:21.498Z,67.22
2018-09-11T06:07:49.694Z,67.42
2018-09-11T06:10:17.895Z,67.04
2018-09-11T06:12:46.107Z,67.25
2018-09-11T06:15:14.303Z,67.13
2018-09-11T06:17:42.488Z,67.16
2018-09-11T06:20:10.687Z,67.34
2018-09-11T06:22:38.859Z,66.49
2018-09-11T06:25:07.086Z,66.84
2018-09-11T06:27:35.262Z,66.81
2018-09-11T06:30:03.818Z,66.80
2018-09-11T06:32:31.984Z,66.61
2018-09-11T06:35:00.179Z,66.67
2018-09-11T06:37:28.380Z,66.63
2018-09-11T06:39:56.619Z,66.09
2018-09-11T06:42:24.794Z,66.40
2018-09-11T06:44:52.968Z,66.15
2018-09-11T06:47:21.152Z,66.12
2018-09-11T06:49:49.626Z,65.89
2018-09-11T06:52:17.830Z,65.60
2018-09-11T06:54:46.057Z,66.05
2018-09-11T06:57:14.222Z,65.19
2018-09-11T06:59:42.403Z,64.89
2018-09-11T07:02:10.619Z,65.53
2018-09-11T07:04:38.869Z,65.17
2018-09-11T07:07:07.023Z,64.31
2018-09-11T07:09:35.216Z,63.78
2018-09-11T07:12:03.427Z,63.15
2018-09-11T07:14:31.656Z,63.21
2018-09-11T07:16:59.807Z,62.71
2018-09-11T07:19:28.053Z,62.82
2018-09-11T07:21:56.180Z,62.05
2018-09-11T07:24:24.380Z,62.46
2018-09-11T07:26:52.572Z,61.60
2018-09-11T07:29:20.764Z,62.07
2018-09-11T07:31:48.964Z,61.61
2018-09-11T07:34:17.151Z,61.41
2018-09-11T07:36:45.349Z,61.63
2018-09-11T07:39:13.527Z,61.50
2018-09-11T07:41:41.707Z,61.44
2018-09-11T07:44:09.875Z,60.78
2018-09-11T07:46:38.055Z,60.74
2018-09-11T07:49:06.273Z,59.67
2018-09-11T07:51:34.437Z,60.48
2018-09-11T07:54:02.603Z,60.26
2018-09-11T07:56:30.783Z,59.32
2018-09-11T07:58:59.863Z,59.65
2018-09-11T08:01:28.032Z,59.99
2018-09-11T08:03:56.227Z,59.58
2018-09-11T08:06:24.416Z,59.63
2018-09-11T08:08:52.608Z,59.65
2018-09-11T08:11:20.776Z,59.70
2018-09-11T08:13:48.951Z,58.65
2018-09-11T08:16:17.172Z,59.36
2018-09-11T08:18:45.324Z,58.70
2018-09-11T08:21:13.487Z,58.45
2018-09-11T08:23:41.716Z,58.72
2018-09-11T08:26:09.923Z,59.77
2018-09-11T08:28:38.142Z,57.75
2018-09-11T08:31:06.356Z,57.40
2018-09-11T08:33:34.547Z,57.10
2018-09-11T08:36:02.733Z,56.34
2018-09-11T08:38:31.067Z,56.01
2018-09-11T08:40:59.298Z,55.53
2018-09-11T08:43:27.432Z,55.49
2018-09-11T08:45:55.600Z,55.80
2018-09-11T08:48:23.768Z,55.05
2018-09-11T08:50:51.936Z,55.43
2018-09-11T08:53:20.109Z,54.20
2018-09-11T08:55:48.300Z,54.68
2018-09-11T08:58:16.479Z,53.57
2018-09-11T09:00:44.711Z,52.97
2018-09-11T09:03:12.934Z,52.76
2018-09-11T09:05:41.117Z,52.46
2018-09-11T09:08:09.287Z,52.36
2018-09-11T09:10:37.475Z,51.56
2018-09-11T09:13:05.690Z,51.69
2018-09-11T09:15:33.898Z,50.97
2018-09-11T09:18:02.176Z,51.29
2018-09-11T09:20:30.352Z,50.64
2018-09-11T09:22:58.572Z,49.84
2018-09-11T09:25:26.755Z,49.51
2018-09-11T09:27:54.951Z,48.79
2018-09-11T09:30:23.186Z,48.28
2018-09-11T09:32:51.375Z,47.78
2018-09-11T09:35:19.559Z,47.78
2018-09-11T09:37:47.753Z,47.70
2018-09-11T09:40:15.928Z,46.81
2018-09-11T09:42:44.106Z,46.15
2018-09-11T09:45:12.289Z,44.96
2018-09-11T09:47:40.484Z,45.02
2018-09-11T09:50:08.671Z,44.65
2018-09-11T09:52:36.861Z,42.74
2018-09-11T09:55:05.080Z,43.18
2018-09-11T09:57:33.271Z,42.62
2018-09-11T10:00:01.448Z,42.25
2018-09-11T10:02:29.645Z,42.45
2018-09-11T10:04:57.880Z,42.13
2018-09-11T10:07:26.025Z,43.31
2018-09-11T10:09:54.244Z,40.24
2018-09-11T10:12:22.439Z,40.88
2018-09-11T10:14:50.628Z,41.50
2018-09-11T10:17:18.795Z,41.53
2018-09-11T10:19:47.086Z,39.95
2018-09-11T10:22:15.255Z,40.33
2018-09-11T10:24:43.461Z,40.44
2018-09-11T10:27:12.284Z,39.04
2018-09-11T10:29:40.455Z,39.32
2018-09-11T10:32:08.631Z,39.52
2018-09-11T10:34:36.823Z,38.41
2018-09-11T10:37:05.002Z,38.63
2018-09-11T10:39:33.512Z,37.99
2018-09-11T10:42:01.464Z,37.83
2018-09-11T10:44:29.629Z,37.88
2018-09-11T10:46:57.835Z,37.86
2018-09-11T10:49:26.002Z,36.78
2018-09-11T10:51:54.259Z,36.95
2018-09-11T10:54:22.348Z,36.83
2018-09-11T10:56:50.527Z,36.17
2018-09-11T10:59:18.702Z,36.45
2018-09-11T11:01:46.906Z,37.00
2018-09-11T11:04:15.094Z,36.06
2018-09-11T11:06:43.252Z,36.11
2018-09-11T11:09:11.675Z,36.31
2018-09-11T11:11:40.107Z,36.36
2018-09-11T11:14:08.662Z,35.89
2018-09-11T11:16:36.834Z,35.96
2018-09-11T11:19:05.311Z,35.84
2018-09-11T11:21:33.479Z,34.83
2018-09-11T11:24:01.641Z,35.41
2018-09-11T11:26:29.821Z,35.64
2018-09-11T11:28:57.994Z,35.13
2018-09-11T11:31:26.201Z,35.20
2018-09-11T11:33:54.353Z,34.44
2018-09-11T11:36:22.689Z,35.28
2018-09-11T11:38:50.690Z,34.62
2018-09-11T11:41:19.527Z,35.52
2018-09-11T11:43:47.755Z,35.34
2018-09-11T11:46:15.925Z,36.57
2018-09-11T11:48:44.117Z,36.26
2018-09-11T11:51:12.295Z,35.69
2018-09-11T11:53:40.504Z,34.78
2018-09-11T11:56:09.196Z,35.68
2018-09-11T11:58:37.402Z,35.47
2018-09-11T12:01:05.684Z,34.19
2018-09-11T12:03:33.942Z,34.93
2018-09-11T12:06:02.399Z,33.89
2018-09-11T12:08:31.190Z,34.79
2018-09-11T12:10:59.372Z,34.63
2018-09-11T12:13:27.561Z,35.37
2018-09-11T12:15:55.758Z,35.20
2018-09-11T12:18:23.955Z,35.50
2018-09-11T12:20:52.153Z,35.10
2018-09-11T12:23:20.331Z,34.91
2018-09-11T12:25:48.532Z,35.54
2018-09-11T12:28:16.697Z,35.28
2018-09-11T12:30:44.870Z,34.69
2018-09-11T12:33:13.063Z,35.63
2018-09-11T12:35:41.243Z,33.78
2018-09-11T12:38:09.624Z,34.38
2018-09-11T12:40:37.794Z,34.58
2018-09-11T12:43:07.024Z,34.60
2018-09-11T12:45:35.403Z,33.79
2018-09-11T12:48:04.071Z,33.92
2018-09-11T12:50:31.934Z,33.92
2018-09-11T12:53:00.172Z,33.56
2018-09-11T12:55:28.336Z,33.94
2018-09-11T12:57:56.559Z,34.66
2018-09-11T13:00:24.800Z,33.64
2018-09-11T13:02:52.988Z,34.11
2018-09-11T13:05:21.257Z,34.61
2018-09-11T13:07:49.447Z,34.53
2018-09-11T13:10:17.640Z,32.63
2018-09-11T13:12:45.805Z,32.73
2018-09-11T13:15:14.035Z,33.30
2018-09-11T13:17:42.149Z,33.59
2018-09-11T13:20:10.358Z,33.55
2018-09-11T13:22:38.543Z,32.99
2018-09-11T13:25:06.757Z,33.77
2018-09-11T13:27:34.935Z,33.40
2018-09-11T13:30:03.169Z,33.76
2018-09-11T13:32:31.520Z,32.79
2018-09-11T13:34:59.740Z,32.66
2018-09-11T13:37:27.941Z,32.77
2018-09-11T13:39:56.128Z,33.10
2018-09-11T13:42:24.329Z,33.23
2018-09-11T13:44:52.544Z,32.74
2018-09-11T13:47:20.845Z,32.64
2018-09-11T13:49:48.960Z,32.99
2018-09-11T13:52:17.371Z,32.56
2018-09-11T13:54:45.544Z,33.13
2018-09-11T13:57:13.726Z,32.95
2018-09-11T13:59:41.928Z,33.44
2018-09-11T14:02:10.136Z,33.33
2018-09-11T14:04:38.315Z,33.05
2018-09-11T14:07:06.495Z,32.52
2018-09-11T14:09:34.673Z,32.63
2018-09-11T14:12:02.850Z,32.83
2018-09-11T14:14:31.031Z,32.98
2018-09-11T14:16:59.303Z,33.36
2018-09-11T14:19:27.487Z,33.69
2018-09-11T14:21:55.694Z,33.87
2018-09-11T14:24:23.857Z,33.86
2018-09-11T14:26:52.120Z,33.29
2018-09-11T14:29:20.244Z,33.13
2018-09-11T14:31:48.471Z,32.90
2018-09-11T14:34:16.676Z,33.23
2018-09-11T14:36:44.876Z,32.76
2018-09-11T14:39:13.503Z,33.51
2018-09-11T14:41:41.699Z,33.42
2018-09-11T14:44:10.025Z,34.75
2018-09-11T14:46:38.316Z,34.05
2018-09-11T14:49:06.501Z,34.67
2018-09-11T14:51:34.693Z,33.70
2018-09-11T14:54:02.894Z,33.40
2018-09-11T14:56:31.067Z,34.02
2018-09-11T14:58:59.295Z,33.02
2018-09-11T15:01:32.815Z,33.47
2018-09-11T15:04:01.007Z,33.05
2018-09-11T15:06:31.231Z,32.22
2018-09-11T15:08:59.526Z,32.58
2018-09-11T15:11:27.896Z,33.05
2018-09-11T15:13:58.172Z,32.38
2018-09-11T15:16:26.866Z,32.96
2018-09-11T15:18:57.203Z,32.52
2018-09-11T15:21:28.891Z,32.80
2018-09-11T15:23:57.789Z,32.68
2018-09-11T15:26:25.971Z,32.47
2018-09-11T15:28:58.317Z,32.86
2018-09-11T15:31:26.511Z,32.42
2018-09-11T15:33:54.816Z,32.43
2018-09-11T15:36:23.095Z,32.57
2018-09-11T15:38:51.476Z,32.16
2018-09-11T15:41:19.695Z,32.73
2018-09-11T15:43:47.973Z,32.87
2018-09-11T15:46:16.179Z,33.08
2018-09-11T15:48:44.389Z,32.73
2018-09-11T15:51:12.616Z,33.40
2018-09-11T15:53:40.869Z,33.07
2018-09-11T15:56:09.085Z,33.54
2018-09-11T15:58:37.368Z,33.40
2018-09-11T16:01:05.560Z,33.63
2018-09-11T16:03:33.795Z,33.53
2018-09-11T16:06:02.165Z,34.09
2018-09-11T16:08:31.451Z,33.57
2018-09-11T16:10:59.641Z,33.50
2018-09-11T16:13:27.847Z,33.75
2018-09-11T16:15:57.552Z,34.08
2018-09-11T16:18:27.285Z,34.08
2018-09-11T16:20:56.307Z,34.39
2018-09-11T16:23:26.247Z,34.03
2018-09-11T16:25:55.291Z,34.32
2018-09-11T16:28:24.692Z,33.99
2018-09-11T16:30:52.941Z,33.72
2018-09-11T16:33:21.212Z,34.56
2018-09-11T16:35:52.939Z,34.17
2018-09-11T16:38:23.427Z,34.38
2018-09-11T16:40:52.287Z,34.63
2018-09-11T16:43:20.536Z,34.01
2018-09-11T16:45:49.381Z,34.62
2018-09-11T16:48:17.798Z,34.81
2018-09-11T16:50:49.065Z,35.00
2018-09-11T16:53:18.015Z,35.21
2018-09-11T16:55:46.358Z,34.69
2018-09-11T16:58:14.865Z,35.20
2018-09-11T17:00:43.507Z,35.24
2018-09-11T17:03:11.732Z,35.20
2018-09-11T17:05:44.004Z,35.22
2018-09-11T17:08:17.219Z,35.77
2018-09-11T17:10:46.956Z,35.90
2018-09-11T17:13:15.385Z,35.47
2018-09-11T17:15:44.327Z,35.51
2018-09-11T17:18:13.763Z,35.72
2018-09-11T17:20:42.091Z,35.77
2018-09-11T17:23:10.939Z,36.01
2018-09-11T17:25:39.322Z,35.62
2018-09-11T17:28:08.241Z,36.27
2018-09-11T17:30:38.088Z,36.10
2018-09-11T17:33:06.283Z,37.16
2018-09-11T17:35:34.527Z,36.98
2018-09-11T17:38:02.839Z,36.89
2018-09-11T17:40:31.063Z,37.10
2018-09-11T17:42:59.277Z,36.87
2018-09-11T17:45:27.451Z,36.71
2018-09-11T17:47:56.085Z,36.91
2018-09-11T17:50:24.343Z,37.10
2018-09-11T17:52:52.900Z,37.77
2018-09-11T17:55:21.190Z,37.61
2018-09-11T17:57:49.972Z,36.93
2018-09-11T18:00:18.291Z,37.83
2018-09-11T18:02:48.364Z,37.68
2018-09-11T18:05:16.736Z,37.87
2018-09-11T18:07:44.944Z,38.18
2018-09-11T18:10:13.807Z,38.60
2018-09-11T18:12:43.016Z,37.96
2018-09-11T18:15:12.423Z,38.10
2018-09-11T18:17:44.489Z,38.21
2018-09-11T18:20:12.877Z,38.92
2018-09-11T18:22:41.717Z,38.72
2018-09-11T18:25:09.951Z,38.67
2018-09-11T18:27:38.366Z,39.03
2018-09-11T18:30:06.591Z,39.14
2018-09-11T18:32:34.808Z,39.21
2018-09-11T18:35:03.119Z,39.84
2018-09-11T18:37:31.369Z,39.60
2018-09-11T18:39:59.550Z,40.22
2018-09-11T18:42:27.844Z,39.75
2018-09-11T18:44:56.114Z,39.33
2018-09-11T18:47:24.546Z,40.00
2018-09-11T18:49:54.092Z,39.56
2018-09-11T18:52:22.579Z,39.56
2018-09-11T18:54:52.266Z,40.39
2018-09-11T18:57:20.587Z,41.11
2018-09-11T18:59:48.967Z,40.85
2018-09-11T19:02:17.284Z,40.53
2018-09-11T19:04:45.655Z,40.78
2018-09-11T19:07:14.554Z,41.59
2018-09-11T19:09:42.807Z,41.25
2018-09-11T19:12:11.208Z,41.27
2018-09-11T19:14:39.421Z,40.95
2018-09-11T19:17:08.045Z,41.37
2018-09-11T19:19:36.233Z,41.49
2018-09-11T19:22:04.678Z,41.47
2018-09-11T19:24:32.894Z,42.74
2018-09-11T19:27:01.538Z,43.30
2018-09-11T19:29:29.709Z,43.18
2018-09-11T19:31:57.939Z,43.97
2018-09-11T19:34:26.545Z,44.39
2018-09-11T19:36:54.771Z,45.04
2018-09-11T19:39:23.092Z,45.80
2018-09-11T19:41:51.503Z,45.96
2018-09-11T19:44:20.255Z,46.38
2018-09-11T19:46:48.545Z,46.54
2018-09-11T19:49:16.823Z,47.43
2018-09-11T19:51:45.052Z,47.53
2018-09-11T19:54:13.339Z,48.25
2018-09-11T19:56:41.511Z,48.87
2018-09-11T19:59:09.727Z,48.77
2018-09-11T20:01:37.899Z,48.78
2018-09-11T20:04:06.096Z,48.86
2018-09-11T20:06:34.315Z,48.65
2018-09-11T20:09:02.517Z,48.16
2018-09-11T20:11:30.687Z,49.35
2018-09-11T20:13:58.875Z,49.35
2018-09-11T20:16:27.068Z,49.98
2018-09-11T20:18:55.239Z,48.32
2018-09-11T20:21:23.436Z,49.72
2018-09-11T20:23:51.606Z,49.74
2018-09-11T20:26:19.783Z,50.08
2018-09-11T20:28:47.964Z,50.93
2018-09-11T20:31:16.157Z,49.81
2018-09-11T20:33:44.328Z,50.59
2018-09-11T20:36:12.509Z,50.98
2018-09-11T20:38:40.747Z,51.55
2018-09-11T20:41:08.949Z,51.44
2018-09-11T20:43:37.155Z,52.46
2018-09-11T20:46:05.360Z,52.58
2018-09-11T20:48:33.556Z,51.95
2018-09-11T20:51:01.763Z,52.07
2018-09-11T20:53:29.946Z,52.39
2018-09-11T20:55:58.179Z,52.62
2018-09-11T20:58:26.312Z,52.99
2018-09-11T21:00:54.487Z,53.43
2018-09-11T21:03:22.679Z,53.44
2018-09-11T21:05:50.885Z,53.59
2018-09-11T21:08:19.102Z,53.81
2018-09-11T21:10:47.332Z,53.89
2018-09-11T21:13:15.523Z,53.77
2018-09-11T21:15:43.738Z,54.19
2018-09-11T21:18:11.902Z,54.50
2018-09-11T21:20:40.255Z,54.56
2018-09-11T21:23:08.554Z,53.76
2018-09-11T21:25:36.743Z,53.84
2018-09-11T21:28:05.157Z,54.61
2018-09-11T21:30:33.359Z,54.88
2018-09-11T21:33:01.549Z,54.85
2018-09-11T21:35:29.730Z,54.80
2018-09-11T21:40:25.146Z,54.81
2018-09-11T21:42:53.320Z,54.58
2018-09-11T21:45:21.489Z,55.01
2018-09-11T21:47:49.672Z,54.64
2018-09-11T21:50:17.883Z,55.11
2018-09-11T21:52:46.067Z,54.82
2018-09-11T21:55:14.252Z,54.69
2018-09-11T21:57:42.428Z,54.88
2018-09-11T22:00:12.073Z,55.14
2018-09-11T22:02:40.219Z,54.76
2018-09-11T22:05:08.931Z,54.88
2018-09-11T22:07:37.147Z,54.75
2018-09-11T22:10:06.687Z,54.79
2018-09-11T22:12:34.901Z,55.09
2018-09-11T22:15:03.098Z,55.24
2018-09-11T22:17:31.291Z,55.89
2018-09-11T22:19:59.462Z,55.92
2018-09-11T22:22:27.648Z,56.25
2018-09-11T22:24:55.898Z,55.92
2018-09-11T22:27:24.162Z,55.65
2018-09-11T22:29:52.339Z,56.17
2018-09-11T22:32:20.522Z,56.56
2018-09-11T22:34:48.703Z,56.55
2018-09-11T22:37:16.935Z,56.47
2018-09-11T22:39:45.055Z,56.45
2018-09-11T22:42:13.229Z,56.62
2018-09-11T22:44:41.412Z,57.19
2018-09-11T22:47:09.578Z,57.12
2018-09-11T22:49:37.819Z,57.57
2018-09-11T22:52:06.237Z,57.64
2018-09-11T22:54:34.435Z,57.37
2018-09-11T22:57:02.629Z,57.14
2018-09-11T22:59:31.182Z,58.04
2018-09-11T23:01:59.356Z,57.22
2018-09-11T23:04:27.532Z,57.41
2018-09-11T23:06:55.703Z,57.41
2018-09-11T23:09:23.913Z,57.39
2018-09-11T23:11:52.087Z,56.50
2018-09-11T23:14:20.280Z,56.44
2018-09-11T23:16:48.459Z,56.86
2018-09-11T23:19:16.658Z,57.25
2018-09-11T23:21:44.823Z,57.80
2018-09-11T23:24:13.012Z,57.42
2018-09-11T23:26:41.203Z,57.98
2018-09-11T23:29:09.384Z,58.72
2018-09-11T23:31:37.566Z,58.35
2018-09-11T23:34:05.995Z,58.26
2018-09-11T23:36:34.164Z,58.09
2018-09-11T23:39:02.350Z,58.14
2018-09-11T23:41:30.551Z,58.69
2018-09-11T23:43:58.745Z,58.86
2018-09-11T23:46:26.952Z,59.13
2018-09-11T23:48:55.131Z,59.44
2018-09-11T23:51:23.320Z,59.45
2018-09-11T23:53:51.492Z,59.81
2018-09-11T23:56:19.680Z,59.74
2018-09-11T23:58:47.866Z,59.61
